Terminal Aerodrome Forecast
Issued by NWS Wilmington, OH

Home | Current Version | Previous Version | Text Only | Print | Product List | Glossary On
Versions: 1 2 3 4 5 6 7 8 9 10 11 12 13 14 15 16 17 18 19 20 21 22 23
899
FTUS41 KILN 040400 AAA
TAFDAY
TAF AMD
KDAY 040400Z 0404/0424 VRB03KT P6SM SCT028 BKN110
      TEMPO 0404/0408 BKN027
     FM041500 12008KT P6SM BKN050
     FM042000 13008KT P6SM -SHRA OVC028=

USA.gov is the U.S. government's official web portal to all federal, state and local government web resources and services.